createdAt,value
2018-03-26T00:00:37.065Z,22.20
2018-03-26T00:03:04.608Z,24.27
2018-03-26T00:05:32.162Z,24.67
2018-03-26T00:07:59.721Z,27.10
2018-03-26T00:10:27.273Z,27.98
2018-03-26T00:12:54.814Z,28.17
2018-03-26T00:15:23.128Z,29.85
2018-03-26T00:17:50.682Z,27.90
2018-03-26T00:20:18.228Z,29.58
2018-03-26T00:22:45.764Z,36.65
2018-03-26T00:25:13.318Z,29.75
2018-03-26T00:27:40.857Z,26.83
2018-03-26T00:30:09.177Z,37.95
2018-03-26T00:32:36.732Z,32.00
2018-03-26T00:35:04.304Z,23.90
2018-03-26T00:37:31.847Z,23.48
2018-03-26T00:39:59.457Z,28.20
2018-03-26T00:42:26.989Z,29.90
2018-03-26T00:44:55.304Z,27.05
2018-03-26T00:47:22.881Z,30.60
2018-03-26T00:49:50.429Z,23.52
2018-03-26T00:52:18.774Z,32.63
2018-03-26T00:54:46.307Z,29.85
2018-03-26T00:57:13.863Z,26.45
2018-03-26T00:59:42.161Z,27.02
2018-03-26T01:02:09.716Z,27.98
2018-03-26T01:04:37.260Z,30.62
2018-03-26T01:07:04.823Z,27.55
2018-03-26T01:09:32.379Z,30.90
2018-03-26T01:11:59.947Z,27.13
2018-03-26T01:14:27.478Z,28.80
2018-03-26T01:16:55.809Z,29.50
2018-03-26T01:19:23.360Z,30.20
2018-03-26T01:21:50.929Z,25.42
2018-03-26T01:24:18.478Z,29.75
2018-03-26T01:26:46.009Z,24.52
2018-03-26T01:29:14.344Z,31.12
2018-03-26T01:31:41.892Z,26.98
2018-03-26T01:34:09.448Z,25.10
2018-03-26T01:36:37.020Z,28.52
2018-03-26T01:39:04.581Z,26.92
2018-03-26T01:41:32.125Z,34.08
2018-03-26T01:43:59.679Z,28.38
2018-03-26T01:46:27.246Z,25.88
2018-03-26T01:48:54.772Z,29.90
2018-03-26T01:51:23.077Z,27.45
2018-03-26T01:53:50.639Z,27.48
2018-03-26T01:56:18.172Z,30.23
2018-03-26T01:58:45.736Z,27.75
2018-03-26T02:01:13.277Z,28.92
2018-03-26T02:03:41.585Z,27.40
2018-03-26T02:06:09.132Z,25.48
2018-03-26T02:08:36.661Z,28.00
2018-03-26T02:11:04.240Z,31.95
2018-03-26T02:13:32.570Z,26.37
2018-03-26T02:16:00.130Z,25.67
2018-03-26T02:18:27.704Z,26.65
2018-03-26T02:20:55.284Z,29.92
2018-03-26T02:23:22.829Z,27.08
2018-03-26T02:25:50.389Z,30.42
2018-03-26T02:28:17.955Z,31.42
2018-03-26T02:30:45.521Z,29.48
2018-03-26T02:33:13.075Z,31.02
2018-03-26T02:35:40.630Z,27.23
2018-03-26T02:38:08.179Z,26.83
2018-03-26T02:40:36.493Z,33.70
2018-03-26T02:43:04.036Z,30.30
2018-03-26T02:45:31.586Z,30.95
2018-03-26T02:47:59.120Z,31.92
2018-03-26T02:50:27.437Z,29.42
2018-03-26T02:52:55.016Z,30.40
2018-03-26T02:55:22.569Z,27.23
2018-03-26T02:57:50.123Z,35.25
2018-03-26T03:00:17.681Z,30.55
2018-03-26T03:02:45.234Z,34.15
2018-03-26T03:05:12.785Z,26.92
2018-03-26T03:07:41.115Z,23.95
2018-03-26T03:10:08.659Z,28.48
2018-03-26T03:12:36.208Z,32.70
2018-03-26T03:15:03.749Z,31.98
2018-03-26T03:17:31.301Z,30.58
2018-03-26T03:19:58.850Z,28.50
2018-03-26T03:22:27.168Z,30.17
2018-03-26T03:24:54.700Z,30.60
2018-03-26T03:27:22.388Z,32.85
2018-03-26T03:29:49.964Z,30.58
2018-03-26T03:32:17.538Z,28.33
2018-03-26T03:34:45.093Z,29.33
2018-03-26T03:37:12.641Z,28.02
2018-03-26T03:39:40.203Z,36.50
2018-03-26T03:42:07.743Z,29.85
2018-03-26T03:44:35.315Z,29.37
2018-03-26T03:47:02.853Z,26.27
2018-03-26T03:49:30.411Z,29.80
2018-03-26T03:51:57.990Z,25.40
2018-03-26T03:54:25.549Z,28.02
2018-03-26T03:56:53.115Z,31.25
2018-03-26T03:59:20.645Z,34.05
2018-03-26T04:01:48.213Z,28.38
2018-03-26T04:04:15.749Z,28.87
2018-03-26T04:06:44.077Z,30.52
2018-03-26T04:09:11.692Z,27.83
2018-03-26T04:11:40.008Z,24.00
2018-03-26T04:14:07.549Z,30.83
2018-03-26T04:16:35.098Z,26.73
2018-03-26T04:19:02.660Z,24.52
2018-03-26T04:21:30.216Z,26.60
2018-03-26T04:23:57.758Z,25.42
2018-03-26T04:26:26.113Z,24.60
2018-03-26T04:28:53.657Z,28.33
2018-03-26T04:31:21.220Z,23.85
2018-03-26T04:33:48.754Z,27.98
2018-03-26T04:36:16.290Z,30.02
2018-03-26T04:38:44.614Z,32.97
2018-03-26T04:41:12.189Z,34.40
2018-03-26T04:43:39.717Z,34.28
2018-03-26T04:46:07.250Z,30.90
2018-03-26T04:48:35.570Z,25.02
2018-03-26T04:51:03.102Z,24.17
2018-03-26T04:53:30.673Z,30.00
2018-03-26T04:55:58.210Z,34.80
2018-03-26T04:58:26.529Z,29.60
2018-03-26T05:00:54.090Z,29.12
2018-03-26T05:03:21.631Z,29.77
2018-03-26T05:05:49.209Z,29.33
2018-03-26T05:08:16.754Z,24.17
2018-03-26T05:10:44.315Z,29.40
2018-03-26T05:13:11.844Z,29.65
2018-03-26T05:15:40.164Z,29.35
2018-03-26T05:18:07.737Z,30.05
2018-03-26T05:20:35.285Z,30.85
2018-03-26T05:23:02.816Z,26.37
2018-03-26T05:25:30.375Z,32.58
2018-03-26T05:27:57.925Z,30.30
2018-03-26T05:30:25.456Z,25.85
2018-03-26T05:32:53.792Z,32.47
2018-03-26T05:35:21.349Z,35.05
2018-03-26T05:37:48.892Z,24.55
2018-03-26T05:40:16.449Z,35.80
2018-03-26T05:42:44.015Z,30.50
2018-03-26T05:45:11.556Z,37.95
2018-03-26T05:47:39.895Z,31.40
2018-03-26T05:50:07.424Z,27.50
2018-03-26T05:52:34.988Z,28.85
2018-03-26T05:55:02.552Z,34.60
2018-03-26T05:57:30.124Z,31.92
2018-03-26T05:59:57.687Z,32.95
2018-03-26T06:02:25.254Z,29.95
2018-03-26T06:04:52.828Z,33.55
2018-03-26T06:07:21.133Z,39.17
2018-03-26T06:09:48.680Z,38.30
2018-03-26T06:12:16.990Z,38.65
2018-03-26T06:14:44.554Z,36.50
2018-03-26T06:17:13.852Z,31.80
2018-03-26T06:19:41.804Z,40.40
2018-03-26T06:22:09.911Z,37.95
2018-03-26T06:24:37.854Z,33.35
2018-03-26T06:27:05.712Z,36.42
2018-03-26T06:29:34.099Z,39.10
2018-03-26T06:32:01.967Z,35.20
2018-03-26T06:34:30.076Z,41.92
2018-03-26T06:37:12.961Z,37.95
2018-03-26T06:39:40.830Z,37.70
2018-03-26T06:42:08.684Z,43.70
2018-03-26T06:44:36.572Z,41.58
2018-03-26T06:47:04.552Z,48.22
2018-03-26T06:49:32.090Z,44.00
2018-03-26T06:51:59.976Z,34.78
2018-03-26T06:54:27.681Z,40.78
2018-03-26T06:56:55.766Z,46.40
2018-03-26T06:59:24.494Z,44.95
2018-03-26T07:01:52.214Z,42.22
2018-03-26T07:04:21.111Z,51.83
2018-03-26T07:06:49.744Z,47.60
2018-03-26T07:09:17.756Z,41.72
2018-03-26T07:11:45.722Z,51.50
2018-03-26T07:14:13.294Z,46.10
2018-03-26T07:16:40.839Z,44.72
2018-03-26T07:19:08.397Z,42.60
2018-03-26T07:21:35.958Z,48.75
2018-03-26T07:24:03.497Z,50.45
2018-03-26T07:26:31.812Z,45.12
2018-03-26T07:28:59.357Z,43.47
2018-03-26T07:31:26.937Z,50.75
2018-03-26T07:33:54.483Z,49.22
2018-03-26T07:36:22.026Z,47.10
2018-03-26T07:38:49.556Z,42.55
2018-03-26T07:41:17.932Z,45.05
2018-03-26T07:43:45.435Z,48.30
2018-03-26T07:46:12.986Z,41.28
2018-03-26T07:48:40.539Z,47.65
2018-03-26T07:51:08.098Z,44.95
2018-03-26T07:53:35.634Z,44.72
2018-03-26T07:56:03.952Z,47.95
2018-03-26T07:58:31.504Z,45.55
2018-03-26T08:00:59.024Z,45.45
2018-03-26T08:03:26.587Z,49.13
2018-03-26T08:05:54.917Z,43.92
2018-03-26T08:08:22.497Z,45.63
2018-03-26T08:10:50.048Z,45.60
2018-03-26T08:13:17.601Z,41.00
2018-03-26T08:15:45.135Z,41.50
2018-03-26T08:18:12.690Z,50.78
2018-03-26T08:20:40.231Z,41.75
2018-03-26T08:23:08.532Z,42.17
2018-03-26T08:25:36.089Z,50.72
2018-03-26T08:28:03.618Z,42.10
2018-03-26T08:30:31.188Z,40.05
2018-03-26T08:32:59.493Z,41.22
2018-03-26T08:35:27.077Z,42.88
2018-03-26T08:37:54.621Z,39.13
2018-03-26T08:40:22.168Z,40.70
2018-03-26T08:42:49.701Z,41.92
2018-03-26T08:45:18.020Z,34.20
2018-03-26T08:47:45.573Z,44.35
2018-03-26T08:50:13.235Z,47.30
2018-03-26T08:52:40.685Z,45.28
2018-03-26T08:55:08.228Z,45.30
2018-03-26T08:57:36.560Z,42.67
2018-03-26T09:00:04.096Z,40.45
2018-03-26T09:02:31.661Z,42.53
2018-03-26T09:04:59.240Z,46.40
2018-03-26T09:07:27.617Z,43.87
2018-03-26T09:09:55.180Z,41.25
2018-03-26T09:12:22.739Z,44.28
2018-03-26T09:14:50.280Z,42.97
2018-03-26T09:17:17.805Z,42.85
2018-03-26T09:19:46.129Z,40.75
2018-03-26T09:22:13.692Z,42.90
2018-03-26T09:24:41.249Z,42.55
2018-03-26T09:27:08.793Z,40.90
2018-03-26T09:29:36.347Z,41.37
2018-03-26T09:32:03.888Z,40.47
2018-03-26T09:34:31.453Z,38.97
2018-03-26T09:36:58.985Z,41.40
2018-03-26T09:39:27.313Z,43.65
2018-03-26T09:41:54.863Z,42.47
2018-03-26T09:44:22.404Z,38.63
2018-03-26T09:46:49.948Z,40.42
2018-03-26T09:49:18.282Z,43.33
2018-03-26T09:51:45.854Z,44.30
2018-03-26T09:54:13.400Z,37.88
2018-03-26T09:56:40.959Z,42.53
2018-03-26T09:59:08.489Z,42.92
2018-03-26T10:01:41.665Z,39.72
2018-03-26T10:04:09.970Z,43.95
2018-03-26T10:06:37.508Z,36.88
2018-03-26T10:09:05.083Z,39.88
2018-03-26T10:11:32.643Z,44.40
2018-03-26T10:14:00.191Z,42.55
2018-03-26T10:16:27.724Z,39.88
2018-03-26T10:18:56.053Z,42.40
2018-03-26T10:21:23.591Z,40.53
2018-03-26T10:23:51.162Z,35.20
2018-03-26T10:26:18.728Z,37.45
2018-03-26T10:28:46.288Z,38.22
2018-03-26T10:31:13.875Z,37.45
2018-03-26T10:33:41.397Z,42.25
2018-03-26T10:36:08.969Z,38.97
2018-03-26T10:38:36.500Z,42.58
2018-03-26T10:41:04.823Z,41.85
2018-03-26T10:43:32.377Z,39.40
2018-03-26T10:45:59.970Z,39.10
2018-03-26T10:48:28.310Z,40.05
2018-03-26T10:50:55.871Z,36.17
2018-03-26T10:53:23.453Z,42.72
2018-03-26T10:55:51.000Z,40.80
2018-03-26T10:58:18.543Z,34.20
2018-03-26T11:00:46.106Z,39.42
2018-03-26T11:03:13.649Z,44.00
2018-03-26T11:05:41.208Z,40.20
2018-03-26T11:08:08.780Z,42.20
2018-03-26T11:10:36.331Z,41.30
2018-03-26T11:13:03.892Z,39.72
2018-03-26T11:15:31.424Z,42.13
2018-03-26T11:17:59.746Z,41.25
2018-03-26T11:20:27.296Z,41.90
2018-03-26T11:22:54.902Z,39.80
2018-03-26T11:25:22.437Z,40.65
2018-03-26T11:27:50.005Z,37.75
2018-03-26T11:30:17.546Z,37.53
2018-03-26T11:32:45.114Z,39.20
2018-03-26T11:35:12.653Z,38.42
2018-03-26T11:37:40.216Z,39.13
2018-03-26T11:40:07.741Z,32.60
2018-03-26T11:42:36.056Z,37.08
2018-03-26T11:45:03.631Z,37.22
2018-03-26T11:47:31.186Z,38.42
2018-03-26T11:49:58.754Z,34.47
2018-03-26T11:52:26.301Z,36.45
2018-03-26T11:54:53.860Z,37.88
2018-03-26T11:57:21.420Z,38.25
2018-03-26T11:59:48.989Z,35.00
2018-03-26T12:02:16.582Z,31.70
2018-03-26T12:04:44.145Z,33.22
2018-03-26T12:07:11.734Z,32.38
2018-03-26T12:09:39.300Z,38.03
2018-03-26T12:12:06.878Z,32.83
2018-03-26T12:14:35.247Z,34.15
2018-03-26T12:17:02.782Z,34.03
2018-03-26T12:19:30.341Z,34.00
2018-03-26T12:21:57.909Z,32.80
2018-03-26T12:24:37.369Z,29.83
2018-03-26T12:27:04.937Z,33.47
2018-03-26T12:29:44.997Z,30.17
2018-03-26T12:32:13.341Z,30.50
2018-03-26T12:34:52.934Z,29.97
2018-03-26T12:37:21.248Z,29.67
2018-03-26T12:39:48.853Z,35.85
2018-03-26T12:42:17.181Z,28.17
2018-03-26T12:44:56.677Z,27.23
2018-03-26T12:47:24.982Z,30.48
2018-03-26T12:49:52.540Z,28.55
2018-03-26T12:52:31.943Z,28.02
2018-03-26T12:54:59.511Z,31.60
2018-03-26T12:57:39.609Z,32.42
2018-03-26T13:00:07.271Z,26.37
2018-03-26T13:02:34.822Z,31.48
2018-03-26T13:05:02.390Z,28.15
2018-03-26T13:07:29.933Z,31.27
2018-03-26T13:09:57.512Z,29.33
2018-03-26T13:12:25.066Z,32.28
2018-03-26T13:14:52.621Z,29.90
2018-03-26T13:17:20.191Z,31.58
2018-03-26T13:19:47.737Z,38.25
2018-03-26T13:22:15.320Z,37.80
2018-03-26T13:24:42.870Z,38.20
2018-03-26T13:27:10.453Z,35.20
2018-03-26T13:29:38.016Z,34.85
2018-03-26T13:32:05.586Z,34.22
2018-03-26T13:34:33.140Z,38.00
2018-03-26T13:37:00.678Z,42.05
2018-03-26T13:39:28.253Z,41.35
2018-03-26T13:41:55.825Z,37.90
2018-03-26T13:44:23.377Z,34.35
2018-03-26T13:46:51.689Z,38.08
2018-03-26T13:49:19.245Z,37.95
2018-03-26T13:51:46.805Z,36.20
2018-03-26T13:54:14.345Z,39.72
2018-03-26T13:56:41.892Z,41.05
2018-03-26T13:59:10.214Z,37.20
2018-03-26T14:01:37.760Z,38.15
2018-03-26T14:04:05.326Z,35.40
2018-03-26T14:06:32.935Z,34.47
2018-03-26T14:09:12.296Z,37.28
2018-03-26T14:11:52.514Z,35.53
2018-03-26T14:14:32.083Z,36.45
2018-03-26T14:17:12.224Z,35.75
2018-03-26T14:19:39.772Z,35.92
2018-03-26T14:22:07.335Z,44.20
2018-03-26T14:24:34.905Z,38.80
2018-03-26T14:27:02.466Z,43.17
2018-03-26T14:29:30.006Z,36.40
2018-03-26T14:31:57.577Z,44.38
2018-03-26T14:34:25.121Z,38.10
2018-03-26T14:36:52.693Z,37.28
2018-03-26T14:39:20.228Z,40.35
2018-03-26T14:41:47.800Z,41.37
2018-03-26T14:44:15.349Z,40.33
2018-03-26T14:46:43.153Z,38.47
2018-03-26T14:49:10.725Z,39.00
2018-03-26T14:51:39.024Z,34.30
2018-03-26T14:54:06.920Z,43.60
2018-03-26T14:56:34.515Z,36.05
2018-03-26T14:59:02.060Z,37.70
2018-03-26T15:01:29.627Z,36.63
2018-03-26T15:03:59.825Z,32.50
2018-03-26T15:06:27.389Z,35.83
2018-03-26T15:08:54.952Z,35.05
2018-03-26T15:11:22.513Z,34.60
2018-03-26T15:13:50.088Z,33.80
2018-03-26T15:16:17.632Z,32.40
2018-03-26T15:18:45.229Z,31.10
2018-03-26T15:21:12.793Z,35.22
2018-03-26T15:23:40.363Z,37.97
2018-03-26T15:26:07.904Z,29.98
2018-03-26T15:28:35.478Z,32.33
2018-03-26T15:31:03.015Z,37.85
2018-03-26T15:33:30.576Z,41.05
2018-03-26T15:35:58.142Z,39.67
2018-03-26T15:38:25.705Z,41.20
2018-03-26T15:40:53.243Z,34.00
2018-03-26T15:43:20.777Z,35.05
2018-03-26T15:45:48.346Z,29.50
2018-03-26T15:48:15.890Z,33.10
2018-03-26T15:50:44.205Z,36.38
2018-03-26T15:53:11.755Z,35.53
2018-03-26T15:55:39.307Z,35.80
2018-03-26T15:58:06.857Z,33.00
2018-03-26T16:00:34.428Z,31.75
2018-03-26T16:03:07.700Z,33.15
2018-03-26T16:05:36.019Z,38.20
2018-03-26T16:08:04.364Z,34.53
2018-03-26T16:10:31.926Z,33.80
2018-03-26T16:12:59.488Z,34.88
2018-03-26T16:15:27.039Z,31.73
2018-03-26T16:17:54.601Z,39.78
2018-03-26T16:20:22.126Z,34.03
2018-03-26T16:22:49.688Z,35.15
2018-03-26T16:25:17.233Z,33.53
2018-03-26T16:27:44.786Z,33.28
2018-03-26T16:30:12.356Z,34.58
2018-03-26T16:32:39.903Z,38.08
2018-03-26T16:35:08.237Z,30.95
2018-03-26T16:37:35.772Z,36.28
2018-03-26T16:40:03.785Z,39.97
2018-03-26T16:42:31.349Z,35.33
2018-03-26T16:44:59.688Z,38.17
2018-03-26T16:47:27.227Z,39.17
2018-03-26T16:49:54.778Z,35.28
2018-03-26T16:52:22.324Z,36.28
2018-03-26T16:54:50.641Z,34.88
2018-03-26T16:57:18.188Z,43.28
2018-03-26T16:59:45.768Z,35.08
2018-03-26T17:02:13.329Z,41.47
2018-03-26T17:04:40.874Z,35.45
2018-03-26T17:07:08.445Z,35.75
2018-03-26T17:09:35.981Z,41.30
2018-03-26T17:12:03.544Z,35.47
2018-03-26T17:14:31.853Z,40.38
2018-03-26T17:16:59.418Z,36.38
2018-03-26T17:19:26.952Z,36.40
2018-03-26T17:21:56.190Z,38.78
2018-03-26T17:24:23.728Z,38.25
2018-03-26T17:26:51.298Z,36.47
2018-03-26T17:29:18.847Z,40.17
2018-03-26T17:31:46.412Z,37.55
2018-03-26T17:34:13.977Z,42.75
2018-03-26T17:36:41.529Z,41.28
2018-03-26T17:39:09.874Z,39.45
2018-03-26T17:41:37.413Z,41.50
2018-03-26T17:44:04.982Z,43.38
2018-03-26T17:46:32.549Z,41.17
2018-03-26T17:49:00.116Z,41.08
2018-03-26T17:51:27.671Z,44.92
2018-03-26T17:53:55.226Z,39.90
2018-03-26T17:56:22.834Z,41.50
2018-03-26T17:58:50.371Z,44.60
2018-03-26T18:01:18.715Z,38.53
2018-03-26T18:03:46.295Z,44.15
2018-03-26T18:06:13.852Z,45.55
2018-03-26T18:08:42.248Z,44.35
2018-03-26T18:11:10.573Z,46.10
2018-03-26T18:13:38.156Z,48.38
2018-03-26T18:16:05.714Z,46.58
2018-03-26T18:18:33.347Z,43.45
2018-03-26T18:21:00.921Z,50.90
2018-03-26T18:23:29.246Z,42.88
2018-03-26T18:25:56.807Z,45.25
2018-03-26T18:28:24.366Z,46.58
2018-03-26T18:30:52.049Z,41.78
2018-03-26T18:33:19.611Z,42.65
2018-03-26T18:35:47.147Z,41.65
2018-03-26T18:38:14.720Z,49.45
2018-03-26T18:40:42.260Z,41.08
2018-03-26T18:43:09.830Z,44.45
2018-03-26T18:45:40.405Z,45.70
2018-03-26T18:48:08.017Z,42.83
2018-03-26T18:50:35.565Z,43.67
2018-03-26T18:53:03.133Z,45.97
2018-03-26T18:55:30.673Z,42.83
2018-03-26T18:57:58.254Z,46.47
2018-03-26T19:00:25.921Z,44.55
2018-03-26T19:02:53.485Z,42.10
2018-03-26T19:05:21.081Z,42.80
2018-03-26T19:07:48.625Z,41.53
2018-03-26T19:10:16.180Z,43.30
2018-03-26T19:12:44.506Z,46.35
2018-03-26T19:15:12.845Z,42.20
2018-03-26T19:17:40.421Z,43.22
2018-03-26T19:20:07.972Z,43.20
2018-03-26T19:22:35.566Z,38.28
2018-03-26T19:25:03.228Z,41.60
2018-03-26T19:27:31.746Z,41.78
2018-03-26T19:29:59.385Z,41.33
2018-03-26T19:32:27.883Z,37.85
2018-03-26T19:34:55.465Z,43.92
2018-03-26T19:37:23.037Z,43.92
2018-03-26T19:39:50.605Z,45.03
2018-03-26T19:42:18.199Z,45.55
2018-03-26T19:44:46.530Z,37.63
2018-03-26T19:47:14.115Z,49.80
2018-03-26T19:49:41.673Z,44.78
2018-03-26T19:52:09.200Z,43.30
2018-03-26T19:54:36.766Z,38.67
2018-03-26T19:57:04.357Z,44.67
2018-03-26T19:59:32.698Z,51.15
2018-03-26T20:02:00.247Z,51.95
2018-03-26T20:04:27.832Z,48.30
2018-03-26T20:06:55.382Z,45.25
2018-03-26T20:09:22.964Z,48.75
2018-03-26T20:11:50.547Z,49.63
2018-03-26T20:14:18.886Z,48.35
2018-03-26T20:16:46.441Z,50.67
2018-03-26T20:19:14.088Z,49.90
2018-03-26T20:21:41.648Z,50.10
2018-03-26T20:24:09.193Z,51.55
2018-03-26T20:26:36.765Z,51.60
2018-03-26T20:29:04.436Z,49.72
2018-03-26T20:31:32.005Z,46.45
2018-03-26T20:33:59.561Z,51.42
2018-03-26T20:36:27.183Z,45.05
2018-03-26T20:38:54.761Z,45.53
2018-03-26T20:41:22.346Z,51.35
2018-03-26T20:43:49.913Z,45.30
2018-03-26T20:46:17.662Z,52.55
2018-03-26T20:48:45.293Z,48.63
2018-03-26T20:51:13.597Z,45.70
2018-03-26T20:53:41.161Z,51.13
2018-03-26T20:56:08.729Z,53.55
2018-03-26T20:58:36.286Z,54.85
2018-03-26T21:01:03.823Z,49.92
2018-03-26T21:03:31.394Z,55.05
2018-03-26T21:05:58.958Z,50.45
2018-03-26T21:08:26.520Z,57.65
2018-03-26T21:10:54.073Z,54.55
2018-03-26T21:13:21.609Z,61.13
2018-03-26T21:15:49.194Z,69.25
2018-03-26T21:18:16.755Z,63.92
2018-03-26T21:20:44.354Z,63.90
2018-03-26T21:23:11.919Z,68.10
2018-03-26T21:25:39.463Z,79.20
2018-03-26T21:28:07.000Z,64.57
2018-03-26T21:30:34.601Z,64.95
2018-03-26T21:33:02.143Z,75.93
2018-03-26T21:35:29.705Z,70.40
2018-03-26T21:37:57.272Z,66.15
2018-03-26T21:40:24.826Z,73.10
2018-03-26T21:42:52.372Z,73.40
2018-03-26T21:45:19.933Z,72.87
2018-03-26T21:47:47.457Z,70.78
2018-03-26T21:50:15.006Z,68.57
2018-03-26T21:52:43.333Z,67.65
2018-03-26T21:55:10.879Z,69.87
2018-03-26T21:57:38.512Z,73.22
2018-03-26T22:00:06.916Z,71.07
2018-03-26T22:02:34.457Z,72.35
2018-03-26T22:05:02.027Z,71.20
2018-03-26T22:07:29.599Z,77.32
2018-03-26T22:09:57.167Z,74.50
2018-03-26T22:12:24.696Z,65.00
2018-03-26T22:14:52.224Z,66.87
2018-03-26T22:17:19.750Z,73.00
2018-03-26T22:19:47.282Z,73.95
2018-03-26T22:22:14.834Z,65.00
2018-03-26T22:24:42.356Z,85.38
2018-03-26T22:27:10.659Z,74.53
2018-03-26T22:29:38.192Z,80.25
2018-03-26T22:32:06.475Z,91.07
2018-03-26T22:34:33.997Z,85.15
2018-03-26T22:37:01.516Z,82.97
2018-03-26T22:39:29.068Z,73.32
2018-03-26T22:41:56.597Z,79.93
2018-03-26T22:44:24.911Z,83.95
2018-03-26T22:46:52.460Z,93.12
2018-03-26T22:49:19.988Z,82.28
2018-03-26T22:51:48.331Z,74.00
2018-03-26T22:54:15.947Z,76.87
2018-03-26T22:56:44.231Z,90.32
2018-03-26T22:59:12.561Z,77.18
2018-03-26T23:01:40.124Z,74.60
2018-03-26T23:04:07.669Z,83.32
2018-03-26T23:06:35.280Z,78.30
2018-03-26T23:09:02.831Z,76.35
2018-03-26T23:11:30.372Z,76.00
2018-03-26T23:13:57.895Z,84.55
2018-03-26T23:16:25.446Z,87.22
2018-03-26T23:18:52.976Z,83.37
2018-03-26T23:21:20.552Z,91.63
2018-03-26T23:23:48.851Z,86.65
2018-03-26T23:26:16.407Z,95.18
2018-03-26T23:28:43.946Z,76.87
2018-03-26T23:31:12.268Z,81.85
2018-03-26T23:33:39.793Z,67.78
2018-03-26T23:36:08.093Z,77.93
2018-03-26T23:38:35.643Z,77.45
2018-03-26T23:41:03.175Z,79.50
2018-03-26T23:43:31.496Z,77.93
2018-03-26T23:45:59.049Z,82.18
2018-03-26T23:48:26.626Z,68.82
2018-03-26T23:50:54.159Z,67.55
2018-03-26T23:53:21.694Z,58.80
2018-03-26T23:55:49.987Z,65.37
2018-03-26T23:58:17.539Z,62.80
